createdAt,value
2017-08-14T00:01:47.051Z,2.50
2017-08-14T00:04:15.468Z,3.50
2017-08-14T00:06:43.042Z,2.83
2017-08-14T00:09:10.653Z,2.53
2017-08-14T00:11:38.236Z,3.07
2017-08-14T00:14:06.242Z,3.47
2017-08-14T00:16:33.835Z,3.70
2017-08-14T00:19:02.199Z,2.87
2017-08-14T00:21:29.792Z,3.67
2017-08-14T00:23:57.363Z,3.00
2017-08-14T00:26:24.959Z,2.60
2017-08-14T00:28:52.537Z,2.90
2017-08-14T00:31:20.390Z,2.73
2017-08-14T00:33:47.979Z,2.63
2017-08-14T00:36:16.339Z,2.80
2017-08-14T00:38:43.932Z,3.20
2017-08-14T00:41:12.256Z,2.33
2017-08-14T00:43:39.864Z,3.33
2017-08-14T00:46:08.376Z,2.57
2017-08-14T00:48:36.271Z,2.70
2017-08-14T00:51:03.851Z,3.33
2017-08-14T00:53:31.435Z,3.03
2017-08-14T00:55:59.047Z,3.33
2017-08-14T00:58:26.611Z,3.97
2017-08-14T01:00:54.207Z,3.87
2017-08-14T01:03:21.835Z,3.10
2017-08-14T01:05:49.699Z,3.13
2017-08-14T01:08:17.289Z,3.27
2017-08-14T01:10:45.627Z,2.93
2017-08-14T01:13:13.218Z,3.00
2017-08-14T01:15:40.789Z,3.13
2017-08-14T01:18:09.131Z,3.37
2017-08-14T01:20:36.715Z,3.43
2017-08-14T01:23:05.042Z,3.23
2017-08-14T01:25:32.654Z,4.20
2017-08-14T01:28:00.979Z,3.60
2017-08-14T01:30:28.865Z,3.57
2017-08-14T01:32:56.441Z,3.97
2017-08-14T01:35:24.031Z,4.00
2017-08-14T01:37:51.636Z,4.77
2017-08-14T01:40:19.203Z,4.00
2017-08-14T01:42:47.179Z,4.10
2017-08-14T01:45:14.762Z,4.20
2017-08-14T01:47:42.376Z,4.30
2017-08-14T01:50:09.966Z,3.73
2017-08-14T01:52:37.528Z,3.83
2017-08-14T01:55:05.127Z,4.50
2017-08-14T01:57:32.720Z,4.53
2017-08-14T02:00:00.597Z,5.43
2017-08-14T02:02:28.170Z,5.00
2017-08-14T02:04:56.728Z,6.23
2017-08-14T02:07:24.311Z,5.10
2017-08-14T02:09:51.971Z,6.40
2017-08-14T02:12:19.565Z,6.03
2017-08-14T02:14:47.895Z,6.70
2017-08-14T02:17:15.743Z,5.83
2017-08-14T02:19:43.325Z,6.20
2017-08-14T02:22:10.892Z,5.87
2017-08-14T02:24:38.487Z,5.83
2017-08-14T02:27:06.834Z,5.10
2017-08-14T02:29:34.415Z,5.80
2017-08-14T02:32:02.770Z,5.20
2017-08-14T02:34:30.833Z,5.53
2017-08-14T02:36:58.404Z,5.60
2017-08-14T02:39:25.991Z,4.93
2017-08-14T02:41:53.573Z,5.43
2017-08-14T02:44:21.156Z,4.40
2017-08-14T02:46:48.778Z,4.60
2017-08-14T02:49:16.343Z,4.20
2017-08-14T02:51:44.211Z,4.93
2017-08-14T02:54:11.786Z,4.80
2017-08-14T02:56:39.355Z,4.47
2017-08-14T02:59:06.952Z,4.50
2017-08-14T03:01:34.545Z,3.53
2017-08-14T03:04:02.903Z,4.20
2017-08-14T03:06:31.230Z,4.00
2017-08-14T03:08:59.124Z,4.40
2017-08-14T03:11:26.708Z,4.57
2017-08-14T03:13:54.292Z,5.43
2017-08-14T03:16:21.889Z,5.00
2017-08-14T03:18:49.704Z,5.60
2017-08-14T03:21:17.293Z,5.20
2017-08-14T03:23:44.846Z,5.10
2017-08-14T03:26:12.946Z,5.07
2017-08-14T03:28:40.510Z,4.30
2017-08-14T03:31:08.869Z,5.00
2017-08-14T03:33:36.457Z,4.93
2017-08-14T03:36:04.019Z,5.40
2017-08-14T03:38:31.615Z,4.53
2017-08-14T03:40:59.191Z,4.50
2017-08-14T03:43:27.083Z,4.60
2017-08-14T03:45:54.653Z,4.77
2017-08-14T03:48:22.230Z,4.00
2017-08-14T03:50:49.813Z,4.70
2017-08-14T03:53:18.147Z,4.73
2017-08-14T03:55:45.972Z,5.43
2017-08-14T03:58:13.648Z,4.47
2017-08-14T04:00:41.532Z,3.90
2017-08-14T04:03:09.105Z,4.70
2017-08-14T04:05:36.693Z,5.17
2017-08-14T04:08:05.043Z,4.83
2017-08-14T04:10:32.617Z,5.20
2017-08-14T04:13:00.279Z,4.47
2017-08-14T04:15:27.856Z,5.20
2017-08-14T04:17:55.778Z,4.40
2017-08-14T04:20:23.350Z,5.93
2017-08-14T04:22:50.930Z,4.53
2017-08-14T04:25:18.533Z,5.10
2017-08-14T04:27:46.110Z,6.17
2017-08-14T04:30:13.734Z,6.20
2017-08-14T04:32:41.300Z,5.40
2017-08-14T04:35:09.519Z,6.00
2017-08-14T04:37:37.099Z,6.57
2017-08-14T04:40:04.678Z,7.50
2017-08-14T04:42:32.281Z,6.33
2017-08-14T04:44:59.842Z,5.33
2017-08-14T04:47:27.437Z,6.07
2017-08-14T04:49:55.010Z,6.30
2017-08-14T04:52:23.645Z,5.70
2017-08-14T04:54:51.224Z,5.40
2017-08-14T04:57:18.951Z,5.40
2017-08-14T04:59:46.534Z,6.60
2017-08-14T05:02:14.102Z,6.30
2017-08-14T05:04:42.040Z,6.13
2017-08-14T05:07:09.620Z,5.53
2017-08-14T05:09:37.199Z,5.10
2017-08-14T05:12:04.799Z,5.60
2017-08-14T05:14:32.407Z,5.70
2017-08-14T05:17:00.483Z,5.87
2017-08-14T05:19:28.052Z,5.43
2017-08-14T05:21:55.598Z,6.27
2017-08-14T05:24:23.199Z,5.70
2017-08-14T05:26:51.541Z,5.90
2017-08-14T05:29:19.137Z,5.43
2017-08-14T05:31:47.482Z,6.63
2017-08-14T05:34:15.439Z,5.93
2017-08-14T05:36:43.036Z,5.20
2017-08-14T05:39:11.386Z,5.40
2017-08-14T05:41:38.975Z,5.23
2017-08-14T05:44:07.333Z,6.60
2017-08-14T05:46:34.937Z,5.90
2017-08-14T05:49:02.519Z,5.40
2017-08-14T05:51:30.396Z,5.60
2017-08-14T05:53:57.957Z,5.60
2017-08-14T05:56:25.528Z,6.30
2017-08-14T05:58:53.273Z,5.33
2017-08-14T06:01:20.851Z,4.70
2017-08-14T06:03:48.437Z,5.00
2017-08-14T06:06:16.799Z,4.90
2017-08-14T06:08:44.678Z,4.20
2017-08-14T06:11:12.298Z,3.93
2017-08-14T06:13:39.884Z,5.40
2017-08-14T06:16:07.475Z,4.60
2017-08-14T06:18:35.041Z,4.10
2017-08-14T06:21:02.676Z,4.20
2017-08-14T06:23:31.017Z,4.53
2017-08-14T06:25:58.883Z,4.80
2017-08-14T06:28:26.462Z,4.23
2017-08-14T06:30:54.026Z,3.70
2017-08-14T06:33:21.619Z,4.23
2017-08-14T06:35:49.223Z,4.50
2017-08-14T06:38:16.806Z,4.63
2017-08-14T06:40:44.386Z,3.40
2017-08-14T06:43:13.132Z,3.70
2017-08-14T06:45:40.704Z,3.60
2017-08-14T06:48:08.296Z,3.93
2017-08-14T06:50:36.663Z,4.37
2017-08-14T06:53:04.248Z,3.90
2017-08-14T06:55:31.874Z,3.63
2017-08-14T06:57:59.434Z,3.20
2017-08-14T07:00:27.355Z,3.23
2017-08-14T07:02:54.947Z,3.40
2017-08-14T07:05:22.515Z,2.70
2017-08-14T07:07:50.108Z,3.27
2017-08-14T07:10:17.674Z,3.63
2017-08-14T07:12:45.334Z,9.50
2017-08-14T07:15:12.915Z,2.70
2017-08-14T07:17:40.807Z,2.73
2017-08-14T07:20:08.380Z,2.43
2017-08-14T07:22:35.980Z,2.57
2017-08-14T07:25:03.535Z,2.60
2017-08-14T07:27:31.121Z,2.13
2017-08-14T07:29:58.721Z,2.23
2017-08-14T07:32:26.303Z,2.43
2017-08-14T07:34:54.243Z,2.07
2017-08-14T07:37:21.816Z,2.30
2017-08-14T07:39:50.150Z,2.33
2017-08-14T07:42:17.852Z,2.42
2017-08-14T07:44:45.409Z,2.67
2017-08-14T07:47:13.767Z,2.17
2017-08-14T07:49:41.342Z,2.30
2017-08-14T07:52:09.262Z,2.20
2017-08-14T07:54:36.848Z,2.37
2017-08-14T07:57:04.489Z,2.10
2017-08-14T07:59:32.103Z,2.00
2017-08-14T08:02:00.432Z,2.00
2017-08-14T08:04:28.043Z,1.65
2017-08-14T08:06:56.460Z,1.65
2017-08-14T08:09:24.459Z,2.22
2017-08-14T08:11:52.048Z,1.95
2017-08-14T08:14:19.646Z,1.60
2017-08-14T08:16:47.313Z,2.03
2017-08-14T08:19:14.886Z,1.95
2017-08-14T08:21:42.479Z,1.90
2017-08-14T08:24:10.808Z,2.03
2017-08-14T08:26:38.702Z,1.77
2017-08-14T08:29:06.281Z,1.80
2017-08-14T08:31:33.859Z,1.77
2017-08-14T08:34:02.220Z,1.87
2017-08-14T08:36:29.815Z,2.03
2017-08-14T08:38:57.405Z,1.60
2017-08-14T08:41:24.987Z,1.60
2017-08-14T08:43:52.942Z,1.45
2017-08-14T08:46:20.565Z,1.90
2017-08-14T08:48:48.150Z,1.77
2017-08-14T08:51:15.786Z,1.87
2017-08-14T08:53:43.364Z,1.42
2017-08-14T08:56:10.961Z,1.73
2017-08-14T08:58:38.560Z,2.12
2017-08-14T09:01:06.831Z,1.92
2017-08-14T09:03:34.408Z,1.67
2017-08-14T09:06:02.004Z,2.00
2017-08-14T09:08:29.892Z,2.00
2017-08-14T09:10:58.227Z,1.65
2017-08-14T09:13:25.835Z,1.30
2017-08-14T09:15:54.197Z,1.75
2017-08-14T09:18:22.260Z,2.07
2017-08-14T09:20:49.883Z,1.70
2017-08-14T09:23:17.490Z,2.00
2017-08-14T09:25:45.109Z,1.52
2017-08-14T09:28:12.737Z,1.60
2017-08-14T09:30:40.464Z,1.52
2017-08-14T09:33:08.056Z,1.30
2017-08-14T09:35:36.776Z,1.60
2017-08-14T09:38:04.394Z,2.00
2017-08-14T09:40:32.754Z,1.52
2017-08-14T09:43:00.420Z,1.58
2017-08-14T09:45:28.018Z,1.70
2017-08-14T09:47:55.606Z,1.70
2017-08-14T09:50:23.298Z,1.60
2017-08-14T09:52:51.251Z,1.42
2017-08-14T09:55:18.821Z,1.42
2017-08-14T09:57:46.411Z,1.42
2017-08-14T10:00:14.922Z,1.25
2017-08-14T10:02:42.592Z,1.85
2017-08-14T10:05:10.190Z,1.52
2017-08-14T10:07:37.907Z,1.37
2017-08-14T10:10:05.502Z,1.45
2017-08-14T10:12:33.227Z,1.30
2017-08-14T10:15:00.815Z,1.27
2017-08-14T10:17:28.395Z,1.25
2017-08-14T10:19:56.009Z,1.30
2017-08-14T10:22:23.620Z,1.52
2017-08-14T10:24:51.555Z,1.40
2017-08-14T10:27:19.184Z,1.50
2017-08-14T10:29:46.802Z,1.35
2017-08-14T10:32:14.460Z,1.52
2017-08-14T10:34:42.026Z,1.92
2017-08-14T10:37:09.633Z,1.60
2017-08-14T10:39:37.198Z,1.60
2017-08-14T10:42:05.059Z,1.55
2017-08-14T10:44:32.643Z,1.55
2017-08-14T10:47:00.251Z,1.80
2017-08-14T10:49:28.640Z,1.92
2017-08-14T10:51:56.224Z,1.12
2017-08-14T10:54:23.882Z,1.33
2017-08-14T10:56:51.452Z,1.50
2017-08-14T10:59:19.326Z,1.40
2017-08-14T11:01:46.898Z,1.58
2017-08-14T11:04:14.475Z,1.33
2017-08-14T11:06:42.076Z,1.30
2017-08-14T11:09:09.649Z,1.98
2017-08-14T11:11:37.247Z,1.45
2017-08-14T11:14:04.818Z,1.70
2017-08-14T11:16:32.755Z,1.70
2017-08-14T11:19:00.345Z,1.73
2017-08-14T11:21:27.914Z,1.77
2017-08-14T11:23:55.528Z,1.42
2017-08-14T11:26:23.108Z,1.40
2017-08-14T11:28:50.741Z,1.65
2017-08-14T11:31:18.374Z,1.70
2017-08-14T11:33:45.957Z,2.08
2017-08-14T11:36:13.548Z,1.98
2017-08-14T11:38:41.152Z,1.50
2017-08-14T11:41:08.771Z,1.42
2017-08-14T11:43:36.570Z,1.80
2017-08-14T11:46:04.171Z,1.80
2017-08-14T11:48:32.020Z,1.70
2017-08-14T11:50:59.584Z,2.50
2017-08-14T11:53:27.213Z,2.00
2017-08-14T11:55:55.587Z,2.20
2017-08-14T11:58:23.172Z,1.85
2017-08-14T12:00:50.768Z,2.15
2017-08-14T12:03:18.375Z,1.75
2017-08-14T12:05:46.225Z,1.30
2017-08-14T12:08:13.773Z,1.50
2017-08-14T12:10:41.362Z,1.60
2017-08-14T12:13:08.961Z,2.00
2017-08-14T12:15:36.552Z,1.52
2017-08-14T12:18:04.164Z,1.48
2017-08-14T12:20:31.770Z,1.73
2017-08-14T12:22:59.728Z,1.70
2017-08-14T12:25:27.535Z,1.52
2017-08-14T12:27:55.128Z,1.42
2017-08-14T12:30:22.778Z,1.65
2017-08-14T12:32:50.358Z,1.58
2017-08-14T12:35:17.951Z,1.40
2017-08-14T12:37:45.513Z,1.40
2017-08-14T12:40:13.442Z,1.27
2017-08-14T12:42:41.010Z,1.50
2017-08-14T12:45:08.663Z,1.20
2017-08-14T12:47:36.268Z,1.40
2017-08-14T12:50:04.618Z,1.50
2017-08-14T12:52:32.626Z,1.60
2017-08-14T12:55:00.207Z,1.33
2017-08-14T12:57:27.803Z,1.30
2017-08-14T12:59:55.542Z,1.70
2017-08-14T13:02:23.196Z,1.63
2017-08-14T13:04:50.793Z,2.13
2017-08-14T13:07:18.385Z,1.50
2017-08-14T13:09:47.042Z,1.67
2017-08-14T13:12:14.615Z,1.57
2017-08-14T13:14:43.146Z,1.47
2017-08-14T13:17:10.756Z,1.50
2017-08-14T13:19:38.337Z,1.80
2017-08-14T13:22:06.688Z,1.87
2017-08-14T13:24:34.278Z,1.47
2017-08-14T13:27:02.152Z,1.80
2017-08-14T13:29:29.780Z,1.60
2017-08-14T13:31:58.138Z,1.30
2017-08-14T13:34:25.759Z,1.83
2017-08-14T13:36:53.355Z,18.70
2017-08-14T13:39:21.240Z,3.43
2017-08-14T13:41:48.837Z,1.90
2017-08-14T13:44:16.447Z,1.33
2017-08-14T13:46:44.039Z,1.50
2017-08-14T13:49:11.631Z,1.90
2017-08-14T13:51:39.213Z,1.57
2017-08-14T13:54:07.768Z,1.70
2017-08-14T13:56:35.664Z,1.50
2017-08-14T13:59:03.264Z,1.77
2017-08-14T14:01:30.868Z,1.30
2017-08-14T14:03:58.469Z,1.30
2017-08-14T14:06:26.043Z,1.60
2017-08-14T14:08:54.407Z,1.77
2017-08-14T14:11:22.198Z,1.87
2017-08-14T14:13:50.107Z,1.90
2017-08-14T14:16:17.680Z,1.40
2017-08-14T14:18:45.267Z,1.67
2017-08-14T14:21:13.630Z,1.93
2017-08-14T14:23:41.205Z,2.40
2017-08-14T14:26:09.598Z,2.10
2017-08-14T14:28:37.226Z,1.90
2017-08-14T14:31:05.185Z,2.57
2017-08-14T14:33:32.760Z,2.10
2017-08-14T14:36:00.351Z,1.57
2017-08-14T14:38:27.940Z,1.73
2017-08-14T14:40:55.510Z,2.00
2017-08-14T14:43:23.097Z,2.20
2017-08-14T14:45:50.678Z,1.60
2017-08-14T14:48:18.512Z,1.87
2017-08-14T14:50:46.228Z,1.90
2017-08-14T14:53:13.811Z,2.00
2017-08-14T14:55:41.411Z,1.80
2017-08-14T14:58:08.986Z,2.00
2017-08-14T15:00:36.596Z,2.13
2017-08-14T15:03:04.347Z,2.00
2017-08-14T15:05:31.960Z,1.97
2017-08-14T15:07:59.533Z,1.40
2017-08-14T15:10:28.178Z,2.27
2017-08-14T15:12:55.765Z,1.77
2017-08-14T15:15:24.127Z,1.83
2017-08-14T15:17:51.946Z,1.80
2017-08-14T15:20:19.507Z,2.07
2017-08-14T15:22:47.474Z,1.77
2017-08-14T15:25:15.022Z,1.97
2017-08-14T15:27:42.600Z,1.80
2017-08-14T15:30:10.239Z,1.73
2017-08-14T15:32:37.810Z,2.20
2017-08-14T15:35:05.719Z,2.10
2017-08-14T15:37:33.282Z,2.10
2017-08-14T15:40:00.865Z,3.07
2017-08-14T15:42:29.239Z,2.30
2017-08-14T15:44:57.861Z,2.13
2017-08-14T15:47:25.450Z,2.40
2017-08-14T15:49:53.027Z,2.23
2017-08-14T15:52:20.973Z,2.47
2017-08-14T15:54:48.569Z,2.07
2017-08-14T15:57:16.138Z,2.37
2017-08-14T15:59:44.503Z,2.27
2017-08-14T16:02:12.833Z,2.33
2017-08-14T16:04:40.692Z,2.10
2017-08-14T16:07:08.273Z,3.03
2017-08-14T16:09:35.862Z,2.63
2017-08-14T16:12:04.228Z,2.80
2017-08-14T16:14:31.810Z,2.83
2017-08-14T16:16:59.394Z,3.63
2017-08-14T16:19:38.794Z,2.83
2017-08-14T16:22:06.753Z,2.90
2017-08-14T16:24:34.337Z,3.27
2017-08-14T16:27:02.691Z,2.70
2017-08-14T16:29:30.294Z,3.00
2017-08-14T16:31:57.868Z,2.23
2017-08-14T16:34:25.705Z,2.23
2017-08-14T16:36:53.299Z,2.77
2017-08-14T16:39:20.879Z,2.57
2017-08-14T16:41:48.499Z,3.00
2017-08-14T16:44:19.600Z,2.80
2017-08-14T16:46:47.187Z,2.90
2017-08-14T16:49:14.778Z,2.60
2017-08-14T16:51:42.763Z,2.30
2017-08-14T16:54:10.354Z,2.67
2017-08-14T16:56:37.945Z,2.53
2017-08-14T16:59:05.553Z,2.00
2017-08-14T17:01:33.128Z,2.00
2017-08-14T17:04:00.732Z,2.30
2017-08-14T17:06:28.304Z,2.10
2017-08-14T17:08:56.209Z,1.73
2017-08-14T17:11:23.816Z,2.20
2017-08-14T17:13:51.394Z,2.30
2017-08-14T17:16:18.998Z,2.10
2017-08-14T17:18:47.352Z,1.83
2017-08-14T17:21:14.939Z,2.00
2017-08-14T17:23:43.287Z,2.20
2017-08-14T17:26:11.259Z,2.80
2017-08-14T17:28:38.814Z,2.90
2017-08-14T17:31:06.410Z,3.17
2017-08-14T17:33:34.808Z,3.13
2017-08-14T17:36:02.380Z,2.50
2017-08-14T17:38:30.217Z,2.40
2017-08-14T17:40:58.564Z,3.37
2017-08-14T17:43:26.143Z,2.70
2017-08-14T17:45:53.738Z,3.00
2017-08-14T17:48:21.315Z,2.40
2017-08-14T17:50:49.179Z,2.63
2017-08-14T17:53:16.773Z,2.33
2017-08-14T17:55:44.430Z,2.70
2017-08-14T17:58:12.014Z,2.47
2017-08-14T18:00:40.358Z,2.40
2017-08-14T18:03:08.204Z,2.00
2017-08-14T18:05:37.643Z,2.70
2017-08-14T18:08:05.216Z,3.00
2017-08-14T18:10:33.582Z,2.90
2017-08-14T18:13:01.154Z,2.47
2017-08-14T18:15:29.891Z,2.70
2017-08-14T18:17:57.477Z,3.63
2017-08-14T18:20:25.085Z,3.20
2017-08-14T18:22:52.698Z,3.30
2017-08-14T18:25:20.288Z,3.17
2017-08-14T18:27:48.654Z,3.13
2017-08-14T18:30:17.020Z,3.00
2017-08-14T18:32:44.607Z,2.90
2017-08-14T18:35:13.040Z,3.10
2017-08-14T18:37:40.962Z,3.77
2017-08-14T18:40:08.541Z,4.13
2017-08-14T18:42:36.109Z,3.90
2017-08-14T18:45:03.680Z,4.50
2017-08-14T18:47:31.261Z,4.23
2017-08-14T18:49:58.872Z,3.73
2017-08-14T18:52:26.455Z,4.63
2017-08-14T18:54:54.414Z,4.10
2017-08-14T18:57:22.857Z,4.30
2017-08-14T18:59:50.430Z,3.77
2017-08-14T19:02:18.049Z,4.63
2017-08-14T19:04:45.787Z,3.70
2017-08-14T19:07:13.387Z,3.80
2017-08-14T19:09:42.100Z,4.23
2017-08-14T19:12:08.932Z,4.70
2017-08-14T19:14:37.278Z,4.03
2017-08-14T19:17:04.903Z,4.17
2017-08-14T19:19:32.492Z,4.20
2017-08-14T19:22:00.079Z,4.43
2017-08-14T19:24:28.473Z,4.43
2017-08-14T19:26:56.042Z,4.77
2017-08-14T19:29:23.878Z,4.53
2017-08-14T19:31:52.235Z,4.70
2017-08-14T19:34:19.820Z,7.13
2017-08-14T19:36:48.205Z,5.73
2017-08-14T19:39:15.816Z,4.50
2017-08-14T19:41:43.412Z,5.77
2017-08-14T19:44:10.987Z,5.20
2017-08-14T19:46:38.918Z,5.57
2017-08-14T19:49:06.528Z,5.03
2017-08-14T19:51:34.130Z,6.20
2017-08-14T19:54:01.721Z,5.30
2017-08-14T19:56:29.296Z,6.10
2017-08-14T19:58:56.987Z,5.10
2017-08-14T20:01:24.649Z,5.73
2017-08-14T20:03:52.545Z,6.63
2017-08-14T20:06:20.135Z,5.23
2017-08-14T20:08:48.904Z,6.27
2017-08-14T20:11:16.512Z,5.57
2017-08-14T20:13:44.068Z,5.63
2017-08-14T20:16:11.688Z,6.30
2017-08-14T20:18:39.312Z,5.87
2017-08-14T20:21:07.188Z,6.53
2017-08-14T20:23:34.800Z,6.70
2017-08-14T20:26:02.386Z,6.90
2017-08-14T20:28:29.982Z,7.00
2017-08-14T20:30:57.539Z,6.17
2017-08-14T20:33:25.183Z,6.50
2017-08-14T20:35:52.792Z,6.70
2017-08-14T20:38:21.437Z,6.70
2017-08-14T20:40:49.015Z,6.90
2017-08-14T20:43:16.610Z,7.30
2017-08-14T20:45:44.192Z,7.40
2017-08-14T20:48:11.751Z,8.57
2017-08-14T20:50:39.569Z,7.37
2017-08-14T20:53:07.162Z,7.63
2017-08-14T20:55:35.086Z,6.77
2017-08-14T20:58:02.684Z,7.53
2017-08-14T21:00:30.295Z,6.77
2017-08-14T21:02:57.926Z,7.37
2017-08-14T21:05:25.492Z,7.90
2017-08-14T21:07:53.106Z,7.50
2017-08-14T21:10:21.445Z,6.80
2017-08-14T21:12:49.329Z,7.67
2017-08-14T21:15:16.939Z,7.30
2017-08-14T21:17:44.525Z,7.80
2017-08-14T21:20:12.178Z,6.83
2017-08-14T21:22:39.762Z,7.60
2017-08-14T21:25:07.350Z,7.30
2017-08-14T21:27:34.918Z,6.50
2017-08-14T21:30:03.664Z,6.60
2017-08-14T21:32:31.347Z,6.40
2017-08-14T21:34:59.022Z,7.00
2017-08-14T21:37:27.394Z,6.23
2017-08-14T21:39:55.753Z,6.10
2017-08-14T21:42:23.345Z,6.83
2017-08-14T21:44:51.682Z,6.70
2017-08-14T21:47:19.555Z,6.83
2017-08-14T21:49:47.136Z,7.07
2017-08-14T21:52:15.501Z,6.07
2017-08-14T21:54:43.901Z,7.67
2017-08-14T21:57:12.443Z,7.00
2017-08-14T21:59:40.039Z,6.60
2017-08-14T22:02:08.397Z,7.57
2017-08-14T22:04:36.287Z,6.97
2017-08-14T22:07:04.631Z,7.17
2017-08-14T22:09:32.217Z,7.27
2017-08-14T22:11:59.826Z,6.20
2017-08-14T22:14:27.405Z,6.60
2017-08-14T22:16:54.995Z,6.13
2017-08-14T22:19:23.328Z,6.00
2017-08-14T22:21:51.318Z,6.87
2017-08-14T22:24:18.904Z,7.40
2017-08-14T22:26:47.265Z,8.03
2017-08-14T22:29:14.892Z,7.53
2017-08-14T22:31:42.473Z,6.80
2017-08-14T22:34:10.080Z,8.07
2017-08-14T22:36:37.665Z,7.10
2017-08-14T22:39:05.560Z,7.37
2017-08-14T22:41:33.302Z,6.80
2017-08-14T22:44:00.895Z,7.10
2017-08-14T22:46:28.503Z,6.43
2017-08-14T22:48:56.069Z,6.00
2017-08-14T22:51:23.668Z,6.90
2017-08-14T22:53:51.229Z,6.73
2017-08-14T22:56:19.189Z,8.17
2017-08-14T22:58:46.760Z,6.63
2017-08-14T23:01:14.355Z,6.60
2017-08-14T23:03:41.955Z,6.40
2017-08-14T23:06:09.509Z,7.23
2017-08-14T23:08:37.116Z,7.20
2017-08-14T23:11:04.692Z,7.30
2017-08-14T23:13:32.275Z,6.33
2017-08-14T23:15:59.863Z,6.60
2017-08-14T23:18:27.442Z,6.57
2017-08-14T23:20:55.477Z,6.90
2017-08-14T23:23:23.057Z,7.07
2017-08-14T23:25:50.648Z,7.57
2017-08-14T23:28:19.021Z,6.83
2017-08-14T23:30:47.364Z,8.10
2017-08-14T23:33:14.998Z,7.00
2017-08-14T23:35:42.571Z,7.60
2017-08-14T23:38:10.428Z,7.60
2017-08-14T23:40:37.986Z,7.30
2017-08-14T23:43:05.569Z,6.63
2017-08-14T23:45:33.167Z,7.17
2017-08-14T23:48:01.497Z,7.40
2017-08-14T23:50:29.368Z,7.97
2017-08-14T23:52:56.953Z,6.60
2017-08-14T23:55:24.528Z,6.83
2017-08-14T23:57:52.122Z,6.90
